Alanreed, Texas
Current Conditions -  °F | °C
As of 4:15 AM on Friday 19 Dec 2014 (Local Time) from KPPA Reporting Station
Overcast Overcast  
Wind Chill: 36°   Ceiling: 800
Heat Index: 36°   Visibility: 7mi
Dew Point: 33°   Wind: 0mph
Humidity: 90%   Direction: NA
Pressure: 30.13"   Gusts: NA
Location:  35.21°N, 100.74°W
Report Text: KPPA 191015Z AUTO 00000KT 7SM OVC008 02/01 A3013 RMK AO2 T00220007 PNO
Loading
Personal Weather Stations






























Interactive Weather Map New forecast layout! Learn more

10-Day Weather Forecast

Advertisements
Track Severe Weather on mobile